sensor_id;sensor_type;location;lat;lon;timestamp;temperature;humidity
59208;DHT22;44977;53.132;6.408;2022-09-09T00:01:24;15.10;99.90
59208;DHT22;44977;53.132;6.408;2022-09-09T00:11:52;15.10;99.90
59208;DHT22;44977;53.132;6.408;2022-09-09T00:17:02;15.00;99.90
59208;DHT22;44977;53.132;6.408;2022-09-09T00:22:20;15.00;99.90
59208;DHT22;44977;53.132;6.408;2022-09-09T00:27:40;15.00;99.90
59208;DHT22;44977;53.132;6.408;2022-09-09T00:32:43;14.90;99.90
59208;DHT22;44977;53.132;6.408;2022-09-09T00:37:46;14.90;99.90
59208;DHT22;44977;53.132;6.408;2022-09-09T00:43:27;14.80;99.90
59208;DHT22;44977;53.132;6.408;2022-09-09T00:48:22;14.80;99.90
59208;DHT22;44977;53.132;6.408;2022-09-09T01:04:24;14.70;99.90
59208;DHT22;44977;53.132;6.408;2022-09-09T01:09:34;14.70;99.90
59208;DHT22;44977;53.132;6.408;2022-09-09T01:14:49;14.60;99.90
59208;DHT22;44977;53.132;6.408;2022-09-09T01:20:12;14.50;99.90
59208;DHT22;44977;53.132;6.408;2022-09-09T01:30:43;14.50;99.90
59208;DHT22;44977;53.132;6.408;2022-09-09T01:35:51;14.40;99.90
59208;DHT22;44977;53.132;6.408;2022-09-09T01:40:54;14.40;99.90
59208;DHT22;44977;53.132;6.408;2022-09-09T01:45:59;14.30;99.90
59208;DHT22;44977;53.132;6.408;2022-09-09T01:51:00;14.30;99.90
59208;DHT22;44977;53.132;6.408;2022-09-09T01:56:41;14.30;99.90
59208;DHT22;44977;53.132;6.408;2022-09-09T02:02:04;14.30;99.90
59208;DHT22;44977;53.132;6.408;2022-09-09T02:12:30;14.30;99.90
59208;DHT22;44977;53.132;6.408;2022-09-09T02:17:35;14.30;99.90
59208;DHT22;44977;53.132;6.408;2022-09-09T02:22:39;14.30;99.90
59208;DHT22;44977;53.132;6.408;2022-09-09T02:27:44;14.30;99.90
59208;DHT22;44977;53.132;6.408;2022-09-09T02:32:47;14.40;99.90
59208;DHT22;44977;53.132;6.408;2022-09-09T02:37:51;14.40;99.90
59208;DHT22;44977;53.132;6.408;2022-09-09T02:42:54;14.30;99.90
59208;DHT22;44977;53.132;6.408;2022-09-09T02:58:21;14.40;99.90
59208;DHT22;44977;53.132;6.408;2022-09-09T03:03:22;14.40;99.90
59208;DHT22;44977;53.132;6.408;2022-09-09T03:08:24;14.40;99.90
59208;DHT22;44977;53.132;6.408;2022-09-09T03:13:24;14.40;99.90
59208;DHT22;44977;53.132;6.408;2022-09-09T03:18:25;14.40;99.90
59208;DHT22;44977;53.132;6.408;2022-09-09T03:23:26;14.40;99.90
59208;DHT22;44977;53.132;6.408;2022-09-09T03:28:26;14.50;99.90
59208;DHT22;44977;53.132;6.408;2022-09-09T03:33:31;14.50;99.90
59208;DHT22;44977;53.132;6.408;2022-09-09T03:38:32;14.50;99.90
59208;DHT22;44977;53.132;6.408;2022-09-09T03:43:33;14.50;99.90
59208;DHT22;44977;53.132;6.408;2022-09-09T03:48:33;14.50;99.90
59208;DHT22;44977;53.132;6.408;2022-09-09T03:53:34;14.50;99.90
59208;DHT22;44977;53.132;6.408;2022-09-09T03:58:37;14.50;99.90
59208;DHT22;44977;53.132;6.408;2022-09-09T04:03:38;14.50;99.90
59208;DHT22;44977;53.132;6.408;2022-09-09T04:08:39;14.50;99.90
59208;DHT22;44977;53.132;6.408;2022-09-09T04:13:40;14.60;99.90
59208;DHT22;44977;53.132;6.408;2022-09-09T04:18:42;14.60;99.90
59208;DHT22;44977;53.132;6.408;2022-09-09T04:23:43;14.60;99.90
59208;DHT22;44977;53.132;6.408;2022-09-09T04:28:44;14.60;99.90
59208;DHT22;44977;53.132;6.408;2022-09-09T04:33:44;14.60;99.90
59208;DHT22;44977;53.132;6.408;2022-09-09T04:38:45;14.60;99.90
59208;DHT22;44977;53.132;6.408;2022-09-09T04:43:46;14.70;99.90
59208;DHT22;44977;53.132;6.408;2022-09-09T04:48:48;14.70;99.90
59208;DHT22;44977;53.132;6.408;2022-09-09T04:53:49;14.70;99.90
59208;DHT22;44977;53.132;6.408;2022-09-09T04:58:51;14.70;99.90
59208;DHT22;44977;53.132;6.408;2022-09-09T05:03:52;14.70;99.90
59208;DHT22;44977;53.132;6.408;2022-09-09T05:08:53;14.70;99.90
59208;DHT22;44977;53.132;6.408;2022-09-09T05:13:54;14.70;99.90
59208;DHT22;44977;53.132;6.408;2022-09-09T05:18:55;14.70;99.90
59208;DHT22;44977;53.132;6.408;2022-09-09T05:23:56;14.70;99.90
59208;DHT22;44977;53.132;6.408;2022-09-09T05:28:56;14.70;99.90
59208;DHT22;44977;53.132;6.408;2022-09-09T05:33:57;14.70;99.90
59208;DHT22;44977;53.132;6.408;2022-09-09T05:38:59;14.70;99.90
59208;DHT22;44977;53.132;6.408;2022-09-09T05:44:01;14.70;99.90
59208;DHT22;44977;53.132;6.408;2022-09-09T05:49:02;14.70;99.90
59208;DHT22;44977;53.132;6.408;2022-09-09T05:54:03;14.70;99.90
59208;DHT22;44977;53.132;6.408;2022-09-09T05:59:04;14.70;99.90
59208;DHT22;44977;53.132;6.408;2022-09-09T06:04:04;14.70;99.90
59208;DHT22;44977;53.132;6.408;2022-09-09T06:09:07;14.80;99.90
59208;DHT22;44977;53.132;6.408;2022-09-09T06:14:10;14.80;99.90
59208;DHT22;44977;53.132;6.408;2022-09-09T06:19:10;14.80;99.90
59208;DHT22;44977;53.132;6.408;2022-09-09T06:24:13;14.80;99.90
59208;DHT22;44977;53.132;6.408;2022-09-09T06:29:17;14.80;99.90
59208;DHT22;44977;53.132;6.408;2022-09-09T06:34:18;14.80;99.90
59208;DHT22;44977;53.132;6.408;2022-09-09T06:39:18;14.90;99.90
59208;DHT22;44977;53.132;6.408;2022-09-09T06:44:19;14.90;99.90
59208;DHT22;44977;53.132;6.408;2022-09-09T06:49:20;14.90;99.90
59208;DHT22;44977;53.132;6.408;2022-09-09T06:54:21;14.90;99.90
59208;DHT22;44977;53.132;6.408;2022-09-09T06:59:23;15.00;99.90
59208;DHT22;44977;53.132;6.408;2022-09-09T07:04:23;15.00;99.90
59208;DHT22;44977;53.132;6.408;2022-09-09T07:09:25;15.00;99.90
59208;DHT22;44977;53.132;6.408;2022-09-09T07:14:27;15.10;99.90
59208;DHT22;44977;53.132;6.408;2022-09-09T07:19:28;15.10;99.90
59208;DHT22;44977;53.132;6.408;2022-09-09T07:24:28;15.20;99.90
59208;DHT22;44977;53.132;6.408;2022-09-09T07:29:30;15.20;99.90
59208;DHT22;44977;53.132;6.408;2022-09-09T07:34:31;15.30;99.90
59208;DHT22;44977;53.132;6.408;2022-09-09T07:39:31;15.40;99.90
59208;DHT22;44977;53.132;6.408;2022-09-09T07:44:32;15.40;99.90
59208;DHT22;44977;53.132;6.408;2022-09-09T07:49:35;15.50;99.90
59208;DHT22;44977;53.132;6.408;2022-09-09T07:54:35;15.60;99.90
59208;DHT22;44977;53.132;6.408;2022-09-09T07:59:36;15.70;99.90
59208;DHT22;44977;53.132;6.408;2022-09-09T08:04:37;15.70;99.90
59208;DHT22;44977;53.132;6.408;2022-09-09T08:09:37;15.90;99.90
59208;DHT22;44977;53.132;6.408;2022-09-09T08:14:38;16.00;99.90
59208;DHT22;44977;53.132;6.408;2022-09-09T08:19:40;16.10;99.90
59208;DHT22;44977;53.132;6.408;2022-09-09T08:24:41;16.30;99.90
59208;DHT22;44977;53.132;6.408;2022-09-09T08:29:41;16.30;99.90
59208;DHT22;44977;53.132;6.408;2022-09-09T08:34:42;16.50;99.90
59208;DHT22;44977;53.132;6.408;2022-09-09T08:39:43;16.80;99.90
59208;DHT22;44977;53.132;6.408;2022-09-09T08:45:00;17.10;99.90
59208;DHT22;44977;53.132;6.408;2022-09-09T08:50:28;17.30;99.90
59208;DHT22;44977;53.132;6.408;2022-09-09T08:55:41;17.60;99.90
59208;DHT22;44977;53.132;6.408;2022-09-09T09:01:00;17.80;99.90
59208;DHT22;44977;53.132;6.408;2022-09-09T09:11:38;18.30;99.90
59208;DHT22;44977;53.132;6.408;2022-09-09T09:27:13;18.80;99.90
59208;DHT22;44977;53.132;6.408;2022-09-09T09:32:17;18.80;99.90
59208;DHT22;44977;53.132;6.408;2022-09-09T09:37:31;18.90;99.90
59208;DHT22;44977;53.132;6.408;2022-09-09T09:42:32;18.90;99.90
59208;DHT22;44977;53.132;6.408;2022-09-09T09:47:32;19.10;99.90
59208;DHT22;44977;53.132;6.408;2022-09-09T09:52:33;19.10;99.90
59208;DHT22;44977;53.132;6.408;2022-09-09T09:57:36;19.10;99.90
59208;DHT22;44977;53.132;6.408;2022-09-09T10:02:39;19.10;99.90
59208;DHT22;44977;53.132;6.408;2022-09-09T10:07:41;19.10;99.90
59208;DHT22;44977;53.132;6.408;2022-09-09T10:34:36;19.10;99.90
59208;DHT22;44977;53.132;6.408;2022-09-09T10:39:41;19.30;99.90
59208;DHT22;44977;53.132;6.408;2022-09-09T10:45:00;19.50;99.90
59208;DHT22;44977;53.132;6.408;2022-09-09T11:00:22;19.80;99.90
59208;DHT22;44977;53.132;6.408;2022-09-09T11:05:44;19.90;99.90
59208;DHT22;44977;53.132;6.408;2022-09-09T11:21:52;20.40;99.90
59208;DHT22;44977;53.132;6.408;2022-09-09T11:27:00;20.50;99.90
59208;DHT22;44977;53.132;6.408;2022-09-09T11:42:26;20.40;99.90
59208;DHT22;44977;53.132;6.408;2022-09-09T11:47:29;20.40;99.90
59208;DHT22;44977;53.132;6.408;2022-09-09T11:57:39;20.40;99.90
59208;DHT22;44977;53.132;6.408;2022-09-09T12:02:48;20.40;99.90
59208;DHT22;44977;53.132;6.408;2022-09-09T12:07:57;20.40;99.90
59208;DHT22;44977;53.132;6.408;2022-09-09T12:13:23;20.40;99.90
59208;DHT22;44977;53.132;6.408;2022-09-09T12:18:31;20.30;99.90
59208;DHT22;44977;53.132;6.408;2022-09-09T12:28:54;20.40;99.90
59208;DHT22;44977;53.132;6.408;2022-09-09T12:34:20;20.50;99.90
59208;DHT22;44977;53.132;6.408;2022-09-09T12:39:33;20.80;99.90
59208;DHT22;44977;53.132;6.408;2022-09-09T12:44:35;21.10;99.90
59208;DHT22;44977;53.132;6.408;2022-09-09T12:49:38;21.30;99.90
59208;DHT22;44977;53.132;6.408;2022-09-09T12:54:44;21.70;99.90
59208;DHT22;44977;53.132;6.408;2022-09-09T12:59:47;21.70;99.90
59208;DHT22;44977;53.132;6.408;2022-09-09T13:04:49;21.70;99.90
59208;DHT22;44977;53.132;6.408;2022-09-09T13:09:51;21.60;99.90
59208;DHT22;44977;53.132;6.408;2022-09-09T13:14:53;21.60;99.90
59208;DHT22;44977;53.132;6.408;2022-09-09T13:20:00;21.60;99.90
59208;DHT22;44977;53.132;6.408;2022-09-09T13:30:32;21.30;99.90
59208;DHT22;44977;53.132;6.408;2022-09-09T13:35:50;21.20;99.90
59208;DHT22;44977;53.132;6.408;2022-09-09T13:41:02;21.00;99.90
59208;DHT22;44977;53.132;6.408;2022-09-09T13:51:34;21.00;99.90
59208;DHT22;44977;53.132;6.408;2022-09-09T13:56:38;21.30;99.90
59208;DHT22;44977;53.132;6.408;2022-09-09T14:01:40;21.40;99.90
59208;DHT22;44977;53.132;6.408;2022-09-09T14:06:41;21.40;99.90
59208;DHT22;44977;53.132;6.408;2022-09-09T14:11:42;21.20;99.90
59208;DHT22;44977;53.132;6.408;2022-09-09T14:16:43;21.00;99.90
59208;DHT22;44977;53.132;6.408;2022-09-09T14:21:45;20.80;99.90
59208;DHT22;44977;53.132;6.408;2022-09-09T14:26:45;20.60;99.90
59208;DHT22;44977;53.132;6.408;2022-09-09T14:31:46;20.40;99.90
59208;DHT22;44977;53.132;6.408;2022-09-09T14:36:46;20.20;99.90
59208;DHT22;44977;53.132;6.408;2022-09-09T14:41:47;20.00;99.90
59208;DHT22;44977;53.132;6.408;2022-09-09T14:46:48;19.90;99.90
59208;DHT22;44977;53.132;6.408;2022-09-09T14:51:50;20.20;99.90
59208;DHT22;44977;53.132;6.408;2022-09-09T14:56:51;20.60;99.90
59208;DHT22;44977;53.132;6.408;2022-09-09T15:01:51;21.00;99.90
59208;DHT22;44977;53.132;6.408;2022-09-09T15:06:53;20.90;99.90
59208;DHT22;44977;53.132;6.408;2022-09-09T15:11:54;21.20;99.90
59208;DHT22;44977;53.132;6.408;2022-09-09T15:16:55;21.40;99.90
59208;DHT22;44977;53.132;6.408;2022-09-09T15:21:56;21.40;99.90
59208;DHT22;44977;53.132;6.408;2022-09-09T15:26:56;21.10;99.90
59208;DHT22;44977;53.132;6.408;2022-09-09T15:31:57;20.80;99.90
59208;DHT22;44977;53.132;6.408;2022-09-09T15:36:58;20.50;99.90
59208;DHT22;44977;53.132;6.408;2022-09-09T15:42:00;20.30;99.90
59208;DHT22;44977;53.132;6.408;2022-09-09T15:47:01;20.20;99.90
59208;DHT22;44977;53.132;6.408;2022-09-09T15:52:01;20.00;99.90
59208;DHT22;44977;53.132;6.408;2022-09-09T15:57:05;19.90;99.90
59208;DHT22;44977;53.132;6.408;2022-09-09T16:02:06;19.80;99.90
59208;DHT22;44977;53.132;6.408;2022-09-09T16:07:07;19.70;99.90
59208;DHT22;44977;53.132;6.408;2022-09-09T16:12:08;19.50;99.90
59208;DHT22;44977;53.132;6.408;2022-09-09T16:17:12;19.30;99.90
59208;DHT22;44977;53.132;6.408;2022-09-09T16:22:12;19.20;99.90
59208;DHT22;44977;53.132;6.408;2022-09-09T16:27:15;19.20;99.90
59208;DHT22;44977;53.132;6.408;2022-09-09T16:32:16;19.10;99.90
59208;DHT22;44977;53.132;6.408;2022-09-09T16:37:16;19.10;99.90
59208;DHT22;44977;53.132;6.408;2022-09-09T16:42:18;19.10;99.90
59208;DHT22;44977;53.132;6.408;2022-09-09T16:47:18;19.10;99.90
59208;DHT22;44977;53.132;6.408;2022-09-09T16:52:19;19.00;99.90
59208;DHT22;44977;53.132;6.408;2022-09-09T16:57:20;18.90;99.90
59208;DHT22;44977;53.132;6.408;2022-09-09T17:02:21;18.80;99.90
59208;DHT22;44977;53.132;6.408;2022-09-09T17:07:21;18.70;99.90
59208;DHT22;44977;53.132;6.408;2022-09-09T17:12:23;18.60;99.90
59208;DHT22;44977;53.132;6.408;2022-09-09T17:17:23;18.50;99.90
59208;DHT22;44977;53.132;6.408;2022-09-09T17:22:24;18.50;99.90
59208;DHT22;44977;53.132;6.408;2022-09-09T17:27:26;18.50;99.90
59208;DHT22;44977;53.132;6.408;2022-09-09T17:32:27;18.40;99.90
59208;DHT22;44977;53.132;6.408;2022-09-09T17:37:29;18.40;99.90
59208;DHT22;44977;53.132;6.408;2022-09-09T17:42:30;18.30;99.90
59208;DHT22;44977;53.132;6.408;2022-09-09T17:47:37;18.30;99.90
59208;DHT22;44977;53.132;6.408;2022-09-09T17:52:45;18.30;99.90
59208;DHT22;44977;53.132;6.408;2022-09-09T17:57:46;18.20;99.90
59208;DHT22;44977;53.132;6.408;2022-09-09T18:02:48;18.20;99.90
59208;DHT22;44977;53.132;6.408;2022-09-09T18:07:58;18.20;99.90
59208;DHT22;44977;53.132;6.408;2022-09-09T18:13:01;18.10;99.90
59208;DHT22;44977;53.132;6.408;2022-09-09T18:18:02;18.00;99.90
59208;DHT22;44977;53.132;6.408;2022-09-09T18:23:06;18.00;99.90
59208;DHT22;44977;53.132;6.408;2022-09-09T18:28:07;18.00;99.90
59208;DHT22;44977;53.132;6.408;2022-09-09T18:33:08;18.00;99.90
59208;DHT22;44977;53.132;6.408;2022-09-09T18:38:09;17.90;99.90
59208;DHT22;44977;53.132;6.408;2022-09-09T18:43:09;17.80;99.90
59208;DHT22;44977;53.132;6.408;2022-09-09T18:48:12;17.80;99.90
59208;DHT22;44977;53.132;6.408;2022-09-09T18:53:12;17.70;99.90
59208;DHT22;44977;53.132;6.408;2022-09-09T18:58:14;17.70;99.90
59208;DHT22;44977;53.132;6.408;2022-09-09T19:03:15;17.70;99.90
59208;DHT22;44977;53.132;6.408;2022-09-09T19:08:18;17.60;99.90
59208;DHT22;44977;53.132;6.408;2022-09-09T19:13:19;17.60;99.90
59208;DHT22;44977;53.132;6.408;2022-09-09T19:18:20;17.50;99.90
59208;DHT22;44977;53.132;6.408;2022-09-09T19:23:21;17.50;99.90
59208;DHT22;44977;53.132;6.408;2022-09-09T19:28:22;17.40;99.90
59208;DHT22;44977;53.132;6.408;2022-09-09T19:33:23;17.40;99.90
59208;DHT22;44977;53.132;6.408;2022-09-09T19:38:24;17.40;99.90
59208;DHT22;44977;53.132;6.408;2022-09-09T19:43:25;17.30;99.90
59208;DHT22;44977;53.132;6.408;2022-09-09T19:48:26;17.30;99.90
59208;DHT22;44977;53.132;6.408;2022-09-09T19:53:28;17.20;99.90
59208;DHT22;44977;53.132;6.408;2022-09-09T19:58:29;17.20;99.90
59208;DHT22;44977;53.132;6.408;2022-09-09T20:03:34;17.20;99.90
59208;DHT22;44977;53.132;6.408;2022-09-09T20:08:36;17.10;99.90
59208;DHT22;44977;53.132;6.408;2022-09-09T20:13:37;17.10;99.90
59208;DHT22;44977;53.132;6.408;2022-09-09T20:18:40;17.00;99.90
59208;DHT22;44977;53.132;6.408;2022-09-09T20:23:42;17.00;99.90
59208;DHT22;44977;53.132;6.408;2022-09-09T20:28:44;17.00;99.90
59208;DHT22;44977;53.132;6.408;2022-09-09T20:33:45;16.90;99.90
59208;DHT22;44977;53.132;6.408;2022-09-09T20:38:48;16.80;99.90
59208;DHT22;44977;53.132;6.408;2022-09-09T20:43:51;16.80;99.90
59208;DHT22;44977;53.132;6.408;2022-09-09T20:48:52;16.70;99.90
59208;DHT22;44977;53.132;6.408;2022-09-09T20:53:59;16.70;99.90
59208;DHT22;44977;53.132;6.408;2022-09-09T20:59:00;16.60;99.90
59208;DHT22;44977;53.132;6.408;2022-09-09T21:04:02;16.60;99.90
59208;DHT22;44977;53.132;6.408;2022-09-09T21:09:03;16.50;99.90
59208;DHT22;44977;53.132;6.408;2022-09-09T21:14:04;16.50;99.90
59208;DHT22;44977;53.132;6.408;2022-09-09T21:19:04;16.40;99.90
59208;DHT22;44977;53.132;6.408;2022-09-09T21:24:06;16.30;99.90
59208;DHT22;44977;53.132;6.408;2022-09-09T21:29:06;16.30;99.90
59208;DHT22;44977;53.132;6.408;2022-09-09T21:34:07;16.20;99.90
59208;DHT22;44977;53.132;6.408;2022-09-09T21:39:09;16.20;99.90
59208;DHT22;44977;53.132;6.408;2022-09-09T21:44:09;16.10;99.90
59208;DHT22;44977;53.132;6.408;2022-09-09T21:49:11;16.10;99.90
59208;DHT22;44977;53.132;6.408;2022-09-09T21:54:12;16.10;99.90
59208;DHT22;44977;53.132;6.408;2022-09-09T21:59:13;16.10;99.90
59208;DHT22;44977;53.132;6.408;2022-09-09T22:04:13;16.00;99.90
59208;DHT22;44977;53.132;6.408;2022-09-09T22:09:14;16.00;99.90
59208;DHT22;44977;53.132;6.408;2022-09-09T22:14:15;16.00;99.90
59208;DHT22;44977;53.132;6.408;2022-09-09T22:19:16;15.90;99.90
59208;DHT22;44977;53.132;6.408;2022-09-09T22:24:17;15.90;99.90
59208;DHT22;44977;53.132;6.408;2022-09-09T22:29:17;15.90;99.90
59208;DHT22;44977;53.132;6.408;2022-09-09T22:34:18;15.70;99.90
59208;DHT22;44977;53.132;6.408;2022-09-09T22:39:20;15.70;99.90
59208;DHT22;44977;53.132;6.408;2022-09-09T22:44:25;15.70;99.90
59208;DHT22;44977;53.132;6.408;2022-09-09T22:49:26;15.60;99.90
59208;DHT22;44977;53.132;6.408;2022-09-09T22:54:27;15.60;99.90
59208;DHT22;44977;53.132;6.408;2022-09-09T22:59:28;15.60;99.90
59208;DHT22;44977;53.132;6.408;2022-09-09T23:04:28;15.60;99.90
59208;DHT22;44977;53.132;6.408;2022-09-09T23:09:29;15.50;99.90
59208;DHT22;44977;53.132;6.408;2022-09-09T23:14:30;15.50;99.90
59208;DHT22;44977;53.132;6.408;2022-09-09T23:19:33;15.40;99.90
59208;DHT22;44977;53.132;6.408;2022-09-09T23:24:34;15.40;99.90
59208;DHT22;44977;53.132;6.408;2022-09-09T23:29:35;15.40;99.90
59208;DHT22;44977;53.132;6.408;2022-09-09T23:34:36;15.40;99.90
59208;DHT22;44977;53.132;6.408;2022-09-09T23:39:38;15.50;99.90
59208;DHT22;44977;53.132;6.408;2022-09-09T23:44:39;15.40;99.90
59208;DHT22;44977;53.132;6.408;2022-09-09T23:49:40;15.50;99.90
59208;DHT22;44977;53.132;6.408;2022-09-09T23:54:41;15.50;99.90
59208;DHT22;44977;53.132;6.408;2022-09-09T23:59:42;15.50;99.90
